Time;durP1;ratioP1;P1;durP2;ratioP2;P2;SDS_P1;SDS_P2;PMS_P1;PMS_P2;Temp;Humidity;BMP_temperature;BMP_pressure;BME280_temperature;BME280_humidity;BME280_pressure;Samples;Min_cycle;Max_cycle;Signal;HPM_P1;HPM_P2
2022/05/21 00:01:20;;;;;;;156.50;17.42;;;35.30;33.50;;;;;;5063152;28;20396;-64
2022/05/21 00:03:46;;;;;;;158.38;16.42;;;35.00;33.30;;;;;;5064984;28;20037;-63
2022/05/21 00:06:13;;;;;;;147.65;15.77;;;34.90;33.80;;;;;;5064848;28;20039;-63
2022/05/21 00:08:40;;;;;;;187.27;16.88;;;35.00;33.30;;;;;;5067087;28;20173;-61
2022/05/21 00:11:06;;;;;;;165.13;15.65;;;35.00;33.40;;;;;;5065655;28;20043;-64
2022/05/21 00:13:32;;;;;;;166.02;14.05;;;34.80;33.50;;;;;;5064378;28;20066;-63
2022/05/21 00:15:59;;;;;;;172.98;14.80;;;34.60;33.40;;;;;;5063986;28;20079;-64
2022/05/21 00:18:25;;;;;;;157.38;13.70;;;34.60;33.70;;;;;;5058707;28;20198;-61
2022/05/21 00:20:51;;;;;;;141.73;13.38;;;34.60;33.80;;;;;;5079754;28;20049;-62
2022/05/21 00:23:27;;;;;;;154.70;13.80;;;34.50;33.70;;;;;;5061217;28;20070;-63
2022/05/21 00:26:09;;;;;;;153.07;13.40;;;34.40;33.90;;;;;;5063317;28;20381;-63
2022/05/21 00:28:38;;;;;;;128.18;12.73;;;34.30;34.10;;;;;;5061475;28;20037;-61
2022/05/21 00:31:06;;;;;;;157.43;13.15;;;34.30;33.90;;;;;;5064484;28;20043;-62
2022/05/21 00:33:33;;;;;;;154.02;13.52;;;34.40;33.50;;;;;;5066270;28;20040;-62
2022/05/21 00:35:59;;;;;;;137.55;12.40;;;34.50;33.90;;;;;;5067911;28;21595;-62
2022/05/21 00:38:26;;;;;;;143.93;13.77;;;34.50;33.50;;;;;;5068503;28;20050;-60
2022/05/21 00:40:54;;;;;;;128.50;12.20;;;34.40;33.00;;;;;;5066626;28;20617;-62
2022/05/21 00:43:39;;;;;;;107.55;10.88;;;34.20;33.60;;;;;;5073313;28;20039;-63
2022/05/21 00:46:08;;;;;;;151.25;12.27;;;34.10;33.60;;;;;;5067140;28;20097;-62
2022/05/21 00:48:38;;;;;;;107.28;11.57;;;34.00;33.80;;;;;;5068470;28;20105;-63
2022/05/21 00:51:09;;;;;;;103.85;10.50;;;33.90;34.80;;;;;;5073881;28;20068;-63
2022/05/21 00:53:35;;;;;;;107.60;10.13;;;33.80;34.70;;;;;;5070235;28;20044;-62
2022/05/21 00:56:03;;;;;;;107.68;9.20;;;33.80;35.00;;;;;;5052720;28;20112;-62
2022/05/21 01:01:17;;;;;;;69.97;8.60;;;33.60;36.20;;;;;;5068815;28;20575;-62
2022/05/21 01:03:44;;;;;;;85.38;9.05;;;33.50;36.70;;;;;;5065938;28;20042;-62
2022/05/21 01:06:12;;;;;;;91.43;8.35;;;33.40;37.00;;;;;;5066861;28;20494;-62
2022/05/21 01:08:39;;;;;;;86.00;7.93;;;33.40;36.90;;;;;;5067078;28;20141;-64
2022/05/21 01:11:16;;;;;;;86.78;7.00;;;33.30;37.20;;;;;;5052285;28;20066;-61
2022/05/21 01:13:45;;;;;;;69.28;7.30;;;33.30;37.50;;;;;;5068572;28;20452;-61
2022/05/21 01:16:13;;;;;;;71.95;6.93;;;32.90;37.40;;;;;;5065587;28;20068;-63
2022/05/21 01:18:39;;;;;;;67.60;7.38;;;32.80;37.00;;;;;;5063596;28;20091;-62
2022/05/21 01:21:07;;;;;;;69.60;7.45;;;32.60;37.70;;;;;;5066429;28;20552;-61
2022/05/21 01:23:33;;;;;;;62.22;6.82;;;32.60;37.90;;;;;;5065355;28;20071;-64
2022/05/21 01:26:03;;;;;;;83.80;7.72;;;32.50;37.90;;;;;;5064486;28;20057;-64
2022/05/21 01:28:33;;;;;;;49.40;6.70;;;32.40;37.90;;;;;;5082598;28;20067;-62
2022/05/21 01:31:02;;;;;;;55.28;6.32;;;32.30;37.90;;;;;;5067286;28;20060;-63
2022/05/21 01:33:32;;;;;;;57.25;6.75;;;32.30;38.10;;;;;;5065472;28;20043;-65
2022/05/21 01:35:59;;;;;;;55.28;6.47;;;32.30;38.00;;;;;;5066888;28;20066;-63
2022/05/21 01:38:29;;;;;;;53.53;6.45;;;32.20;38.00;;;;;;5064113;28;20040;-63
2022/05/21 01:40:57;;;;;;;52.03;5.95;;;32.10;38.10;;;;;;5066263;28;20622;-65
2022/05/21 01:46:10;;;;;;;40.63;5.68;;;32.20;38.00;;;;;;5067169;28;20115;-64
2022/05/21 01:48:37;;;;;;;59.25;6.88;;;32.20;38.50;;;;;;5068990;28;20066;-64
2022/05/21 01:51:05;;;;;;;51.22;6.35;;;32.10;38.80;;;;;;5064163;28;20496;-62
2022/05/21 01:53:32;;;;;;;50.25;5.50;;;32.00;39.10;;;;;;5067385;28;20076;-64
2022/05/21 01:55:59;;;;;;;52.47;5.43;;;32.00;39.20;;;;;;5065170;28;20058;-62
2022/05/21 01:58:26;;;;;;;53.50;6.47;;;31.80;39.50;;;;;;5066881;28;20065;-63
2022/05/21 02:00:54;;;;;;;57.03;6.57;;;31.70;39.70;;;;;;5069549;28;20114;-63
2022/05/21 02:03:20;;;;;;;37.67;6.13;;;31.60;39.70;;;;;;5066851;28;20059;-64
2022/05/21 02:05:47;;;;;;;48.30;5.50;;;31.50;40.20;;;;;;5067548;28;20058;-64
2022/05/21 02:08:15;;;;;;;49.47;6.68;;;31.40;40.60;;;;;;5080862;28;20380;-64
2022/05/21 02:10:42;;;;;;;71.68;7.50;;;31.20;41.40;;;;;;5066333;28;20087;-64
2022/05/21 02:13:14;;;;;;;53.80;6.72;;;31.00;42.40;;;;;;5064499;28;20124;-66
2022/05/21 02:15:41;;;;;;;412.92;22.70;;;30.80;43.10;;;;;;5067340;28;20407;-64
2022/05/21 02:18:07;;;;;;;72.88;7.63;;;30.70;43.40;;;;;;5070073;28;20099;-66
2022/05/21 02:20:34;;;;;;;82.90;8.23;;;30.40;43.90;;;;;;5067604;28;20086;-64
2022/05/21 02:23:00;;;;;;;60.95;7.32;;;30.30;44.70;;;;;;5062931;28;20147;-64
2022/05/21 02:25:27;;;;;;;51.25;6.68;;;30.20;44.90;;;;;;5064446;28;20146;-66
2022/05/21 02:27:53;;;;;;;74.70;8.15;;;30.10;45.20;;;;;;5065676;28;20080;-64
2022/05/21 02:30:19;;;;;;;71.85;8.48;;;29.90;45.10;;;;;;5067653;28;20064;-63
2022/05/21 02:32:46;;;;;;;74.50;8.30;;;29.90;45.30;;;;;;5065406;28;20066;-64
2022/05/21 02:35:14;;;;;;;77.55;8.00;;;29.80;45.80;;;;;;5049026;28;20065;-64
2022/05/21 02:40:26;;;;;;;68.75;7.60;;;29.60;46.60;;;;;;5063744;28;20175;-66
2022/05/21 02:42:54;;;;;;;62.35;7.07;;;29.40;46.70;;;;;;5065899;28;20058;-65
2022/05/21 02:45:23;;;;;;;84.32;8.45;;;29.30;47.20;;;;;;5063289;28;20058;-65
2022/05/21 02:47:51;;;;;;;84.18;10.18;;;29.20;47.50;;;;;;5064873;28;20058;-65
2022/05/21 02:50:20;;;;;;;91.72;10.30;;;29.20;47.70;;;;;;5065542;28;20152;-66
2022/05/21 02:52:47;;;;;;;83.95;9.30;;;29.00;48.30;;;;;;5063153;28;20062;-64
2022/05/21 02:55:14;;;;;;;63.47;8.23;;;28.90;48.80;;;;;;5049573;28;20073;-65
2022/05/21 02:57:41;;;;;;;69.50;8.15;;;28.90;49.10;;;;;;5063497;28;20065;-66
2022/05/21 03:00:17;;;;;;;73.72;9.77;;;28.80;49.40;;;;;;5065210;28;20091;-65
2022/05/21 03:02:43;;;;;;;85.95;9.73;;;28.90;49.50;;;;;;5065315;28;20063;-66
2022/05/21 03:05:10;;;;;;;96.68;10.50;;;28.80;50.10;;;;;;5065374;28;20073;-66
2022/05/21 03:07:42;;;;;;;101.15;10.93;;;28.80;50.40;;;;;;5067066;28;20151;-65
2022/05/21 03:10:22;;;;;;;85.57;9.57;;;28.70;51.10;;;;;;5083019;28;20612;-65
2022/05/21 03:12:59;;;;;;;103.32;10.23;;;28.60;51.60;;;;;;5071713;28;20535;-64
2022/05/21 03:15:35;;;;;;;88.25;10.00;;;28.50;51.80;;;;;;5068370;28;20074;-65
2022/05/21 03:18:04;;;;;;;61.75;7.15;;;28.50;51.40;;;;;;5067437;28;20070;-65
2022/05/21 03:20:30;;;;;;;58.22;7.95;;;28.40;50.50;;;;;;5068008;28;20145;-64
2022/05/21 03:22:57;;;;;;;55.47;7.93;;;28.30;49.80;;;;;;5064869;28;20496;-62
2022/05/21 03:25:23;;;;;;;50.90;7.07;;;28.20;49.50;;;;;;5066500;28;20080;-63
2022/05/21 03:27:50;;;;;;;57.53;7.40;;;28.10;49.00;;;;;;5067379;28;20076;-62
2022/05/21 03:30:19;;;;;;;62.38;7.75;;;28.10;48.80;;;;;;5063329;28;20121;-62
2022/05/21 03:32:46;;;;;;;68.25;9.23;;;28.00;48.80;;;;;;5052226;28;20071;-62
2022/05/21 03:35:16;;;;;;;56.95;8.43;;;28.00;48.80;;;;;;5066424;28;20100;-62
2022/05/21 03:37:43;;;;;;;56.67;7.55;;;28.10;48.80;;;;;;5061004;28;20519;-62
2022/05/21 03:40:13;;;;;;;62.35;7.68;;;27.90;48.50;;;;;;5065474;28;20142;-62
2022/05/21 03:42:40;;;;;;;51.38;7.65;;;27.90;48.50;;;;;;5066178;28;20091;-62
2022/05/21 03:45:08;;;;;;;65.28;9.10;;;27.90;48.50;;;;;;5065982;28;20061;-61
2022/05/21 03:47:35;;;;;;;63.22;10.00;;;27.90;48.70;;;;;;5061816;28;20128;-62
2022/05/21 03:50:03;;;;;;;50.58;8.27;;;27.90;48.90;;;;;;5082107;28;20534;-62
2022/05/21 03:52:29;;;;;;;44.95;7.47;;;27.80;49.30;;;;;;5048680;28;20131;-60
2022/05/21 03:54:56;;;;;;;47.83;7.13;;;27.80;49.70;;;;;;5061838;28;20073;-61
2022/05/21 03:57:23;;;;;;;41.67;5.72;;;27.70;50.00;;;;;;5080937;28;20141;-62
2022/05/21 03:59:49;;;;;;;32.92;6.07;;;27.50;50.30;;;;;;5066824;28;20131;-61
2022/05/21 04:02:16;;;;;;;39.78;6.25;;;27.40;50.50;;;;;;5066384;28;20072;-64
2022/05/21 04:04:42;;;;;;;31.65;4.97;;;27.40;50.10;;;;;;5070788;28;20119;-59
2022/05/21 04:07:09;;;;;;;38.38;5.65;;;27.30;49.50;;;;;;5066050;28;20491;-62
2022/05/21 04:09:36;;;;;;;30.77;4.82;;;27.20;49.60;;;;;;5067713;28;20072;-61
2022/05/21 04:12:03;;;;;;;35.60;5.05;;;27.20;50.00;;;;;;5070387;28;20089;-59
2022/05/21 04:14:30;;;;;;;41.20;5.55;;;27.20;50.50;;;;;;5069038;28;20589;-62
2022/05/21 04:17:01;;;;;;;23.20;5.70;;;27.20;50.70;;;;;;5070458;28;20067;-62
2022/05/21 04:19:29;;;;;;;27.05;5.10;;;27.20;51.10;;;;;;5086027;28;20100;-63
2022/05/21 04:21:56;;;;;;;46.83;5.63;;;27.00;51.10;;;;;;5052956;28;20075;-61
2022/05/21 04:24:23;;;;;;;32.38;5.20;;;27.10;51.10;;;;;;5052317;28;20515;-62
2022/05/21 04:26:50;;;;;;;43.88;6.07;;;27.00;51.30;;;;;;5070789;28;20103;-61
2022/05/21 04:29:17;;;;;;;39.60;5.85;;;27.00;51.70;;;;;;5068646;28;20091;-62
2022/05/21 04:31:44;;;;;;;33.28;6.45;;;27.00;52.00;;;;;;5069827;28;20724;-61
2022/05/21 04:34:11;;;;;;;32.95;6.93;;;26.90;52.30;;;;;;5053987;28;20074;-61
2022/05/21 04:36:38;;;;;;;44.13;6.13;;;26.80;52.80;;;;;;5068362;28;20112;-60
2022/05/21 04:39:05;;;;;;;38.25;5.95;;;26.70;53.20;;;;;;5069852;28;20076;-62
2022/05/21 04:41:32;;;;;;;33.15;6.07;;;26.70;53.30;;;;;;5068566;28;20611;-62
2022/05/21 04:43:59;;;;;;;42.85;6.65;;;26.60;53.70;;;;;;5069968;28;20170;-61
2022/05/21 04:46:26;;;;;;;37.75;6.35;;;26.60;54.20;;;;;;5070098;28;20107;-64
2022/05/21 04:48:52;;;;;;;36.42;5.68;;;26.50;54.60;;;;;;5069639;28;20193;-63
2022/05/21 04:51:19;;;;;;;46.17;5.97;;;26.50;54.60;;;;;;5070512;28;20529;-63
2022/05/21 04:53:46;;;;;;;42.17;6.50;;;26.60;54.60;;;;;;5069653;28;20074;-62
2022/05/21 04:56:13;;;;;;;42.30;6.40;;;26.60;54.40;;;;;;5053330;28;20454;-60
2022/05/21 04:58:40;;;;;;;41.85;5.63;;;26.40;53.10;;;;;;5070989;28;20075;-60
2022/05/21 05:01:06;;;;;;;43.10;5.60;;;26.40;50.10;;;;;;5078872;28;20098;-61
2022/05/21 05:03:33;;;;;;;52.20;6.60;;;26.30;48.50;;;;;;5072700;28;20065;-62
2022/05/21 05:06:01;;;;;;;64.47;7.22;;;26.30;47.80;;;;;;5054143;28;20070;-60
2022/05/21 05:08:27;;;;;;;76.47;9.73;;;26.20;46.90;;;;;;5071553;28;20116;-62
2022/05/21 05:10:55;;;;;;;55.50;6.82;;;26.30;46.40;;;;;;5070972;28;20094;-62
2022/05/21 05:13:21;;;;;;;47.40;6.20;;;26.20;46.80;;;;;;5070678;28;20769;-62
2022/05/21 05:15:47;;;;;;;43.58;6.88;;;26.10;46.20;;;;;;5054221;28;20169;-61
2022/05/21 05:18:17;;;;;;;54.05;6.93;;;26.10;45.90;;;;;;5053852;28;20102;-61
2022/05/21 05:20:45;;;;;;;105.38;9.52;;;26.10;45.90;;;;;;5067941;28;20417;-62
2022/05/21 05:23:12;;;;;;;72.18;8.85;;;26.00;45.90;;;;;;5071335;28;20071;-64
2022/05/21 05:25:39;;;;;;;71.10;9.60;;;25.90;45.70;;;;;;5066344;28;20110;-61
2022/05/21 05:28:14;;;;;;;92.00;9.45;;;25.90;45.70;;;;;;5068286;28;20071;-63
2022/05/21 05:30:40;;;;;;;100.30;11.40;;;25.80;45.80;;;;;;5064449;28;20103;-62
2022/05/21 05:33:07;;;;;;;99.72;10.50;;;25.70;46.10;;;;;;5069044;28;20427;-62
2022/05/21 05:35:33;;;;;;;111.18;12.57;;;25.70;46.20;;;;;;5052945;28;20079;-62
2022/05/21 05:38:07;;;;;;;141.38;13.40;;;25.80;45.80;;;;;;5068623;28;20078;-61
2022/05/21 05:40:35;;;;;;;132.10;14.65;;;25.80;45.30;;;;;;5070530;28;20600;-62
2022/05/21 05:43:03;;;;;;;150.38;14.93;;;25.70;45.10;;;;;;5069863;28;20683;-63
2022/05/21 05:45:30;;;;;;;182.95;20.33;;;25.70;45.20;;;;;;5070341;28;20522;-63
2022/05/21 05:47:56;;;;;;;253.15;23.42;;;25.70;45.20;;;;;;5069336;28;20066;-64
2022/05/21 05:50:23;;;;;;;262.08;24.60;;;25.60;45.20;;;;;;5068984;28;20075;-62
2022/05/21 05:52:49;;;;;;;242.75;24.48;;;25.60;45.60;;;;;;5068474;28;20429;-64
2022/05/21 05:55:16;;;;;;;269.52;25.70;;;25.50;45.60;;;;;;5069611;28;20157;-61
2022/05/21 05:57:42;;;;;;;257.08;23.27;;;25.40;45.60;;;;;;5052552;28;20076;-62
2022/05/21 06:00:09;;;;;;;194.55;18.65;;;25.30;46.10;;;;;;5069261;28;20084;-62
2022/05/21 06:05:25;;;;;;;174.98;16.15;;;25.10;47.20;;;;;;5068949;28;20121;-63
2022/05/21 06:07:54;;;;;;;166.82;16.77;;;25.00;47.50;;;;;;5069871;28;20075;-64
2022/05/21 06:10:24;;;;;;;168.45;14.70;;;24.90;47.80;;;;;;5051938;28;20076;-61
2022/05/21 06:12:51;;;;;;;158.77;15.13;;;24.90;48.10;;;;;;5068204;28;20151;-61
2022/05/21 06:15:18;;;;;;;160.90;15.93;;;24.90;48.30;;;;;;5067961;28;20103;-63
2022/05/21 06:17:45;;;;;;;159.52;15.38;;;24.70;48.50;;;;;;5084763;28;20068;-63
2022/05/21 06:20:15;;;;;;;165.55;15.85;;;24.70;48.90;;;;;;5068025;28;20232;-62
2022/05/21 06:22:44;;;;;;;175.20;15.57;;;24.50;49.40;;;;;;5067190;28;20151;-62
2022/05/21 06:25:17;;;;;;;147.02;15.75;;;24.40;49.70;;;;;;5066378;28;20074;-63
2022/05/21 06:27:45;;;;;;;141.32;14.65;;;24.40;50.10;;;;;;5067877;28;20158;-62
2022/05/21 06:30:13;;;;;;;153.73;13.13;;;24.30;50.10;;;;;;5068641;28;20472;-62
2022/05/21 06:32:39;;;;;;;116.57;11.43;;;24.30;50.50;;;;;;5068779;28;20442;-63
2022/05/21 06:35:06;;;;;;;114.82;11.82;;;24.30;50.60;;;;;;5066057;28;20080;-64
2022/05/21 06:37:32;;;;;;;114.60;11.43;;;24.20;50.80;;;;;;5070357;28;20162;-63
2022/05/21 06:39:59;;;;;;;129.15;11.93;;;24.20;51.00;;;;;;5051445;28;20080;-63
2022/05/21 06:42:25;;;;;;;103.68;9.90;;;24.10;51.30;;;;;;5068149;28;20534;-62
2022/05/21 06:44:52;;;;;;;95.85;9.18;;;24.00;51.50;;;;;;5067967;28;20079;-62
2022/05/21 06:47:19;;;;;;;90.00;9.75;;;24.00;51.70;;;;;;5050672;28;20221;-62
2022/05/21 06:49:46;;;;;;;79.53;9.20;;;24.10;51.60;;;;;;5067773;28;20292;-63
2022/05/21 06:52:12;;;;;;;96.10;9.93;;;24.00;51.50;;;;;;5068960;28;20068;-65
2022/05/21 06:54:38;;;;;;;79.90;7.47;;;24.00;51.60;;;;;;5065503;28;20090;-64
2022/05/21 06:57:10;;;;;;;73.05;7.95;;;23.90;51.50;;;;;;5067851;28;20589;-61
2022/05/21 06:59:37;;;;;;;70.45;6.80;;;23.90;51.80;;;;;;5067309;28;20103;-62
2022/05/21 07:02:04;;;;;;;35.13;5.47;;;23.80;52.00;;;;;;5067889;28;20102;-65
2022/05/21 07:07:35;;;;;;;55.58;5.72;;;23.60;52.50;;;;;;5066022;28;20218;-61
2022/05/21 07:10:12;;;;;;;36.65;4.70;;;23.60;52.50;;;;;;5067588;28;20535;-62
2022/05/21 07:12:39;;;;;;;34.67;3.90;;;23.60;52.50;;;;;;5051969;28;20091;-61
2022/05/21 07:15:06;;;;;;;28.23;3.80;;;23.60;52.40;;;;;;5067783;28;20072;-63
2022/05/21 07:17:33;;;;;;;26.00;3.22;;;23.50;52.50;;;;;;5069143;28;20079;-62
2022/05/21 07:20:03;;;;;;;27.27;3.80;;;23.50;52.50;;;;;;5066497;28;20194;-61
2022/05/21 07:22:30;;;;;;;29.27;3.63;;;23.30;52.80;;;;;;5067741;28;20099;-63
2022/05/21 07:24:57;;;;;;;30.77;3.20;;;23.30;52.90;;;;;;5067927;28;20063;-65
2022/05/21 07:27:23;;;;;;;30.33;4.03;;;23.30;52.90;;;;;;5067911;28;20075;-65
2022/05/21 07:29:50;;;;;;;24.95;3.83;;;23.30;52.80;;;;;;5067503;28;20210;-62
2022/05/21 07:32:20;;;;;;;17.88;2.92;;;23.30;52.80;;;;;;5067555;28;20076;-63
2022/05/21 07:34:46;;;;;;;15.18;3.05;;;23.20;52.90;;;;;;5051646;28;20072;-63
2022/05/21 07:37:13;;;;;;;18.05;3.17;;;23.30;52.90;;;;;;5083604;28;20153;-62
2022/05/21 07:39:40;;;;;;;16.80;3.25;;;23.30;53.10;;;;;;5064547;28;20530;-62
2022/05/21 07:42:07;;;;;;;19.20;3.28;;;23.40;52.90;;;;;;5067186;28;20121;-63
2022/05/21 07:44:33;;;;;;;25.55;3.65;;;23.40;52.90;;;;;;5069076;28;20079;-62
2022/05/21 07:47:00;;;;;;;19.27;3.35;;;23.40;53.00;;;;;;5067736;28;20076;-63
2022/05/21 07:49:26;;;;;;;18.13;3.58;;;23.40;52.60;;;;;;5067777;28;20553;-63
2022/05/21 07:51:52;;;;;;;18.63;3.00;;;23.30;52.40;;;;;;5084227;28;20079;-62
2022/05/21 07:54:21;;;;;;;27.70;3.67;;;23.30;52.30;;;;;;5065480;28;20087;-61
2022/05/21 07:56:47;;;;;;;22.70;3.40;;;23.30;52.30;;;;;;5066492;28;20623;-64
2022/05/21 07:59:13;;;;;;;20.80;3.53;;;23.30;52.40;;;;;;5067029;28;20072;-61
2022/05/21 08:01:40;;;;;;;25.77;4.22;;;23.20;52.90;;;;;;5067630;28;20596;-59
2022/05/21 08:04:06;;;;;;;27.83;3.83;;;23.60;52.50;;;;;;5068272;28;20117;-60
2022/05/21 08:06:32;;;;;;;19.10;2.80;;;23.80;51.80;;;;;;5068481;28;20094;-58
2022/05/21 08:08:59;;;;;;;28.52;3.80;;;24.10;51.20;;;;;;5064959;28;20075;-61
2022/05/21 08:11:26;;;;;;;22.20;3.67;;;24.00;50.80;;;;;;5065847;28;20084;-60
2022/05/21 08:13:52;;;;;;;20.00;3.85;;;23.90;51.30;;;;;;5066463;28;20178;-61
2022/05/21 08:16:19;;;;;;;23.17;4.45;;;24.30;50.60;;;;;;5050609;28;20092;-59
2022/05/21 08:18:46;;;;;;;28.05;4.28;;;24.50;50.10;;;;;;5066023;28;20108;-60
2022/05/21 08:21:12;;;;;;;33.00;4.53;;;24.60;49.70;;;;;;5066803;28;20095;-61
2022/05/21 08:29:08;;;;;;;27.48;4.18;;;24.50;49.80;;;;;;5066101;28;20095;-60
2022/05/21 08:31:34;;;;;;;32.95;4.70;;;24.50;50.30;;;;;;5067097;28;20076;-58
2022/05/21 08:34:01;;;;;;;31.75;4.45;;;24.40;49.60;;;;;;5065941;28;20442;-58
2022/05/21 08:36:27;;;;;;;32.38;4.60;;;24.30;49.60;;;;;;5067641;28;20493;-62
2022/05/21 08:38:54;;;;;;;27.52;4.50;;;24.30;49.70;;;;;;5066108;28;20082;-60
2022/05/21 08:41:26;;;;;;;26.95;5.68;;;24.40;49.40;;;;;;5048690;28;20092;-60
2022/05/21 08:43:55;;;;;;;24.42;4.70;;;24.40;50.00;;;;;;5063624;28;20080;-59
2022/05/21 08:46:48;;;;;;;31.73;4.60;;;24.30;50.20;;;;;;5065419;28;20149;-61
2022/05/21 08:49:30;;;;;;;23.77;3.95;;;24.10;50.20;;;;;;5051560;28;20114;-59
2022/05/21 08:52:53;;;;;;;19.77;3.80;;;24.10;50.40;;;;;;5062881;28;20460;-59
2022/05/21 08:55:31;;;;;;;46.85;4.95;;;24.40;49.60;;;;;;4988814;28;20081;-60
2022/05/21 08:58:04;;;;;;;34.90;4.65;;;24.30;49.20;;;;;;4993178;28;20082;-60
2022/05/21 09:00:38;;;;;;;34.35;4.53;;;24.20;49.50;;;;;;4990975;28;20097;-60
2022/05/21 09:03:09;;;;;;;31.70;4.82;;;24.20;49.30;;;;;;4975239;28;20078;-61
2022/05/21 09:05:38;;;;;;;35.97;4.75;;;24.00;49.30;;;;;;4990450;28;20090;-59
2022/05/21 09:08:45;;;;;;;42.20;4.70;;;24.20;49.30;;;;;;4971939;28;20070;-60
2022/05/21 09:11:34;;;;;;;34.63;4.85;;;24.20;49.40;;;;;;4959351;28;20164;-58
2022/05/21 09:14:14;;;;;;;41.67;4.85;;;24.10;49.50;;;;;;4990832;28;20135;-58
2022/05/21 09:16:55;;;;;;;30.55;4.15;;;24.10;49.50;;;;;;4977451;28;20260;-60
2022/05/21 09:19:52;;;;;;;41.60;6.28;;;24.10;49.60;;;;;;4990612;28;20112;-60
2022/05/21 09:22:20;;;;;;;23.90;4.88;;;24.00;49.70;;;;;;4976310;28;20073;-61
2022/05/21 09:24:49;;;;;;;26.38;4.90;;;24.00;49.90;;;;;;4975002;28;20074;-60
2022/05/21 09:27:34;;;;;;;31.25;5.38;;;24.00;50.10;;;;;;5067493;28;20080;-61
2022/05/21 09:30:21;;;;;;;30.17;5.63;;;23.90;50.00;;;;;;5068379;28;20068;-60
2022/05/21 09:32:52;;;;;;;33.53;5.00;;;23.90;50.30;;;;;;5069580;28;20075;-60
2022/05/21 09:35:27;;;;;;;24.63;4.60;;;23.80;50.60;;;;;;5069156;28;20078;-60
2022/05/21 09:37:54;;;;;;;33.40;4.93;;;23.70;50.70;;;;;;5068495;28;20133;-61
2022/05/21 09:40:34;;;;;;;36.55;4.10;;;23.60;51.00;;;;;;5052960;28;20085;-59
2022/05/21 09:46:20;;;;;;;21.58;4.00;;;23.60;51.30;;;;;;5068336;28;20491;-57
2022/05/21 09:48:48;;;;;;;24.00;4.35;;;23.50;52.10;;;;;;5067761;28;20541;-59
2022/05/21 09:51:24;;;;;;;26.08;4.43;;;23.40;51.70;;;;;;5051754;28;20145;-62
2022/05/21 09:53:51;;;;;;;28.13;5.18;;;23.40;51.80;;;;;;5066795;28;20079;-60
2022/05/21 09:56:33;;;;;;;26.73;4.82;;;23.30;52.00;;;;;;5068881;28;20084;-59
2022/05/21 09:59:14;;;;;;;24.60;4.75;;;23.10;52.40;;;;;;5069345;28;20576;-58
2022/05/21 10:01:48;;;;;;;26.50;4.28;;;23.10;52.50;;;;;;5052747;28;20092;-59
2022/05/21 10:04:43;;;;;;;29.50;4.10;;;23.10;52.20;;;;;;5068562;28;20109;-59
2022/05/21 10:10:58;;;;;;;27.25;4.15;;;23.10;52.60;;;;;;5082210;28;20096;-59
2022/05/21 10:12:54;;;;;;;29.15;3.85;;;23.20;52.20;;;;;;5067090;28;20569;-59
2022/05/21 10:15:43;;;;;;;28.98;4.80;;;23.10;52.50;;;;;;5034005;28;20080;-57
2022/05/21 10:18:31;;;;;;;26.20;4.07;;;23.20;52.10;;;;;;5065789;28;20094;-60
2022/05/21 10:21:03;;;;;;;37.38;4.43;;;23.20;52.30;;;;;;5068088;28;20122;-55
2022/05/21 10:23:56;;;;;;;28.38;4.43;;;23.20;51.90;;;;;;5050505;28;20072;-59
2022/05/21 10:26:47;;;;;;;26.70;3.90;;;23.20;52.30;;;;;;5057377;28;20170;-59
2022/05/21 10:30:08;;;;;;;19.13;3.90;;;23.10;52.60;;;;;;5074710;28;20076;-59
2022/05/21 10:32:38;;;;;;;36.30;5.15;;;23.00;52.70;;;;;;5011974;28;20096;-60
2022/05/21 10:35:28;;;;;;;25.83;4.05;;;23.00;52.50;;;;;;5029654;28;20073;-60
2022/05/21 10:38:02;;;;;;;43.28;5.43;;;22.80;53.10;;;;;;5019875;28;20100;-60
2022/05/21 10:40:44;;;;;;;34.70;5.22;;;22.90;52.90;;;;;;5010432;28;20096;-59
2022/05/21 10:43:31;;;;;;;44.95;5.35;;;22.80;53.40;;;;;;5027840;28;20706;-59
2022/05/21 10:46:13;;;;;;;50.25;5.95;;;22.70;52.80;;;;;;5013876;28;20105;-59
2022/05/21 10:48:57;;;;;;;31.95;4.68;;;22.60;52.80;;;;;;5024116;28;20096;-57
2022/05/21 10:51:44;;;;;;;45.63;5.63;;;22.40;53.00;;;;;;5013460;28;21412;-58
2022/05/21 10:54:43;;;;;;;63.47;6.05;;;22.60;53.40;;;;;;5009100;28;20079;-59
2022/05/21 10:57:38;;;;;;;45.13;6.13;;;22.60;52.90;;;;;;5024962;28;20529;-57
2022/05/21 11:00:17;;;;;;;67.57;7.88;;;22.50;52.70;;;;;;4999927;28;20089;-58
2022/05/21 11:03:08;;;;;;;65.88;7.57;;;22.30;53.10;;;;;;5037720;28;20163;-59
2022/05/21 11:05:53;;;;;;;68.20;7.68;;;22.20;53.40;;;;;;5065903;28;20098;-59
2022/05/21 11:08:51;;;;;;;60.17;7.15;;;22.30;53.30;;;;;;5066095;28;20437;-60
2022/05/21 11:11:31;;;;;;;47.60;5.45;;;22.40;53.60;;;;;;5066218;28;20088;-59
2022/05/21 11:14:17;;;;;;;60.55;4.97;;;22.40;54.00;;;;;;5066690;28;20095;-58
2022/05/21 11:17:11;;;;;;;51.47;5.25;;;22.40;54.00;;;;;;5050342;28;20548;-58
2022/05/21 11:19:46;;;;;;;37.42;5.40;;;22.10;54.60;;;;;;5065197;28;20122;-58
2022/05/21 11:22:38;;;;;;;41.70;5.00;;;22.10;54.90;;;;;;5082659;28;20067;-57
2022/05/21 11:25:19;;;;;;;41.97;5.68;;;22.00;54.70;;;;;;5068048;28;20068;-60
2022/05/21 11:28:18;;;;;;;46.67;5.45;;;22.10;55.50;;;;;;5068173;28;20151;-60
2022/05/21 11:30:44;;;;;;;51.60;5.90;;;22.20;54.70;;;;;;5035075;28;20077;-57
2022/05/21 11:39:16;;;;;;;56.38;6.50;;;22.10;54.60;;;;;;4973711;28;20155;-58
2022/05/21 11:42:16;;;;;;;59.35;6.22;;;22.10;54.70;;;;;;4965365;28;20099;-58
2022/05/21 11:45:11;;;;;;;60.47;6.32;;;22.10;54.80;;;;;;4976020;28;20082;-55
2022/05/21 11:47:52;;;;;;;48.95;6.53;;;22.00;54.70;;;;;;4983474;28;20074;-58
2022/05/21 11:50:27;;;;;;;61.17;6.82;;;21.90;55.00;;;;;;4959939;28;20510;-59
2022/05/21 11:53:00;;;;;;;45.78;7.68;;;21.70;54.70;;;;;;4968865;28;20087;-59
2022/05/21 11:55:32;;;;;;;48.90;6.38;;;21.80;54.90;;;;;;4984398;28;20151;-58
2022/05/21 11:58:01;;;;;;;72.60;8.18;;;21.50;55.10;;;;;;4961097;28;20452;-60
2022/05/21 12:00:27;;;;;;;66.07;7.85;;;21.40;55.80;;;;;;4975505;28;20105;-59
2022/05/21 12:02:53;;;;;;;;;;;21.50;56.00;;;;;;4962193;28;20841;-58
2022/05/21 12:05:34;;;;;;;60.33;6.82;;;21.70;55.70;;;;;;4979999;28;19965;-55
2022/05/21 12:08:22;;;;;;;50.33;6.25;;;21.70;55.70;;;;;;4974910;28;20073;-63
2022/05/21 12:10:55;;;;;;;58.42;6.65;;;21.70;55.70;;;;;;4978112;28;20152;-60
2022/05/21 12:13:34;;;;;;;57.25;6.53;;;21.70;55.70;;;;;;5049609;28;20084;-58
2022/05/21 12:16:20;;;;;;;50.90;6.68;;;21.60;55.70;;;;;;5065327;28;20071;-60
2022/05/21 12:18:58;;;;;;;39.83;5.60;;;21.70;55.90;;;;;;5064578;28;20107;-56
2022/05/21 12:21:35;;;;;;;46.08;5.47;;;21.70;56.20;;;;;;5082656;28;20094;-59
2022/05/21 12:24:06;;;;;;;45.47;5.65;;;21.60;56.50;;;;;;5066106;28;20075;-58
2022/05/21 12:26:39;;;;;;;42.60;5.80;;;21.60;56.40;;;;;;5064104;28;20089;-60
2022/05/21 12:29:19;;;;;;;53.70;7.03;;;21.50;56.60;;;;;;5065831;28;20505;-61
2022/05/21 12:31:50;;;;;;;49.08;5.97;;;21.50;56.70;;;;;;5070040;28;20072;-59
2022/05/21 12:34:21;;;;;;;59.97;7.07;;;21.40;56.90;;;;;;5068781;28;20076;-59
2022/05/21 12:37:18;;;;;;;65.32;8.18;;;21.40;57.30;;;;;;5068140;28;20092;-58
2022/05/21 12:40:09;;;;;;;63.58;7.68;;;21.20;57.70;;;;;;5070380;28;20073;-57
2022/05/21 12:42:44;;;;;;;38.40;6.90;;;21.20;58.10;;;;;;5068971;28;20125;-57
2022/05/21 12:45:36;;;;;;;44.08;6.50;;;21.20;58.40;;;;;;5071463;28;20543;-58
2022/05/21 12:48:22;;;;;;;50.20;6.63;;;21.00;59.50;;;;;;5068447;28;20101;-58
2022/05/21 12:50:53;;;;;;;58.38;7.28;;;21.00;60.00;;;;;;5066948;28;20089;-57
2022/05/21 12:53:25;;;;;;;51.35;6.40;;;21.10;61.00;;;;;;5069863;28;20076;-58
2022/05/21 12:56:24;;;;;;;46.75;7.10;;;21.10;61.80;;;;;;5068478;28;20073;-59
2022/05/21 12:59:11;;;;;;;51.70;7.10;;;21.10;62.30;;;;;;5067864;28;20451;-58
2022/05/21 13:01:43;;;;;;;44.58;7.13;;;21.10;62.60;;;;;;5067925;28;20081;-58
2022/05/21 13:04:26;;;;;;;45.47;6.85;;;21.20;62.90;;;;;;5054553;28;20084;-59
2022/05/21 13:07:20;;;;;;;62.33;7.13;;;21.30;63.90;;;;;;5070895;28;20067;-59
2022/05/21 13:10:03;;;;;;;61.45;8.77;;;21.40;64.10;;;;;;5068315;28;20465;-61
2022/05/21 13:12:37;;;;;;;66.10;7.68;;;21.40;65.00;;;;;;5053445;28;20072;-57
2022/05/21 13:15:04;;;;;;;63.05;8.45;;;21.40;65.50;;;;;;5065732;28;20096;-56
2022/05/21 13:17:57;;;;;;;55.72;7.47;;;21.40;66.00;;;;;;5070194;28;20078;-59
2022/05/21 13:20:28;;;;;;;40.13;8.77;;;21.50;66.70;;;;;;5068966;28;20104;-59
2022/05/21 13:23:02;;;;;;;47.13;10.13;;;21.40;70.10;;;;;;5070550;28;20096;-59
2022/05/21 13:25:29;;;;;;;56.80;11.05;;;21.30;72.30;;;;;;5052222;28;20083;-59
2022/05/21 13:27:57;;;;;;;57.85;11.80;;;21.20;73.70;;;;;;5051825;28;20117;-59
2022/05/21 13:30:33;;;;;;;50.88;11.68;;;21.10;75.10;;;;;;5071814;28;20101;-61